Time;durP1;ratioP1;P1;durP2;ratioP2;P2;SDS_P1;SDS_P2;PMS_P1;PMS_P2;Temp;Humidity;BMP_temperature;BMP_pressure;BME280_temperature;BME280_humidity;BME280_pressure;Samples;Min_cycle;Max_cycle;Signal;HPM_P1;HPM_P2
2022/11/04 00:02:08;;;;;;;12.85;8.30;;;;;;;21.55;47.03;101039.41;1623840;86;21096;-77
2022/11/04 00:04:35;;;;;;;13.90;8.90;;;;;;;21.55;47.01;101036.64;1644171;85;21216;-77
2022/11/04 00:08:22;;;;;;;14.10;9.05;;;;;;;21.54;47.00;101033.63;1642312;86;21080;-77
2022/11/04 00:09:29;;;;;;;14.45;8.75;;;;;;;21.55;47.00;101037.20;1643391;86;21197;-77
2022/11/04 00:14:41;;;;;;;15.88;9.55;;;;;;;21.55;46.97;101034.44;1637197;86;21175;-78
2022/11/04 00:17:23;;;;;;;15.38;9.65;;;;;;;21.54;46.97;101033.63;1653405;85;21062;-78
2022/11/04 00:33:24;;;;;;;13.78;8.50;;;;;;;21.52;46.89;101023.42;1623587;87;21131;-78
2022/11/04 00:33:29;;;;;;;14.75;9.00;;;;;;;21.51;46.88;101019.60;1615738;87;21226;-77
2022/11/04 00:35:56;;;;;;;15.30;8.78;;;;;;;21.51;46.89;101009.91;1620456;87;21156;-77
2022/11/04 00:38:24;;;;;;;15.03;10.03;;;;;;;21.51;46.88;101018.22;1618801;87;21164;-77
2022/11/04 00:40:50;;;;;;;14.13;9.30;;;;;;;21.50;46.86;101015.19;1615284;87;21111;-77
2022/11/04 00:43:16;;;;;;;16.65;9.70;;;;;;;21.51;46.87;101007.14;1617719;87;21133;-77
2022/11/04 00:45:43;;;;;;;15.80;9.55;;;;;;;21.50;46.83;100995.25;1594484;88;21120;-77
2022/11/04 00:48:09;;;;;;;14.93;9.20;;;;;;;21.49;46.84;100997.77;1612513;87;21164;-77
2022/11/04 00:50:36;;;;;;;14.30;8.30;;;;;;;21.50;46.83;100998.02;1609361;86;21058;-77
2022/11/04 00:53:03;;;;;;;14.05;8.60;;;;;;;21.49;46.83;100997.77;1607553;87;21666;-77
2022/11/04 00:55:29;;;;;;;14.47;8.80;;;;;;;21.50;46.82;101004.13;1614360;87;21069;-77
2022/11/04 00:57:57;;;;;;;13.83;9.03;;;;;;;21.50;46.82;101004.13;1627121;86;21675;-77
2022/11/04 01:00:23;;;;;;;15.88;9.23;;;;;;;21.50;46.80;101001.35;1633285;87;21497;-77
2022/11/04 01:02:50;;;;;;;13.88;9.00;;;;;;;21.49;46.76;100995.00;1631345;87;21079;-77
2022/11/04 01:05:16;;;;;;;16.17;9.33;;;;;;;21.49;46.76;100995.00;1630764;87;21088;-77
2022/11/04 01:07:43;;;;;;;13.38;8.23;;;;;;;21.49;46.74;100990.84;1635725;86;21105;-77
2022/11/04 01:10:09;;;;;;;15.23;8.35;;;;;;;21.48;46.73;100983.67;1632224;87;21429;-77
2022/11/04 01:12:36;;;;;;;13.00;8.43;;;;;;;21.49;46.70;100985.87;1635216;87;21677;-77
2022/11/04 01:15:03;;;;;;;13.35;8.83;;;;;;;21.48;46.69;100976.75;1632782;87;21063;-77
2022/11/04 01:17:29;;;;;;;13.72;8.73;;;;;;;21.48;46.69;100973.98;1625969;87;21040;-78
2022/11/04 01:19:55;;;;;;;12.85;8.70;;;;;;;21.48;46.67;100976.75;1634388;87;21053;-77
2022/11/04 01:22:22;;;;;;;14.65;9.05;;;;;;;21.47;46.65;100975.14;1606264;87;21851;-77
2022/11/04 01:24:48;;;;;;;14.85;9.38;;;;;;;21.47;46.65;100969.60;1630401;87;21136;-77
2022/11/04 01:27:15;;;;;;;13.65;8.55;;;;;;;21.48;46.64;100969.01;1631820;87;21104;-78
2022/11/04 01:29:41;;;;;;;13.62;8.80;;;;;;;21.48;46.63;100965.67;1624670;87;21092;-77
2022/11/04 01:32:07;;;;;;;14.23;8.98;;;;;;;21.47;46.61;100964.06;1606091;89;21602;-77
2022/11/04 01:34:34;;;;;;;13.80;8.65;;;;;;;21.46;46.58;100956.89;1594904;89;21046;-77
2022/11/04 01:37:00;;;;;;;12.28;8.68;;;;;;;21.48;46.58;100963.47;1614575;87;21132;-77
2022/11/04 01:39:27;;;;;;;13.32;8.60;;;;;;;21.47;46.56;100961.86;1613902;87;21091;-77
2022/11/04 01:41:53;;;;;;;12.60;8.23;;;;;;;21.48;46.57;100962.09;1615979;88;21083;-77
2022/11/04 01:44:45;;;;;;;14.03;9.08;;;;;;;21.46;46.55;100956.89;1615496;87;21614;-77
2022/11/04 01:47:20;;;;;;;12.40;8.40;;;;;;;21.46;46.55;100951.92;1616413;87;21807;-78
2022/11/04 01:49:51;;;;;;;13.88;9.00;;;;;;;21.46;46.51;100951.92;1612635;87;21666;-77
2022/11/04 01:52:35;;;;;;;12.93;8.43;;;;;;;21.46;46.51;100943.05;1617186;88;21120;-78
2022/11/04 01:55:06;;;;;;;13.53;9.20;;;;;;;21.45;46.49;100938.64;1618743;87;21068;-78
2022/11/04 01:57:35;;;;;;;;;;;;;;;21.43;46.50;100936.75;1619420;87;21068;-77
2022/11/04 02:00:04;;;;;;;10.80;8.33;;;;;;;21.43;46.45;100929.04;1631994;87;20668;-77
2022/11/04 02:03:05;;;;;;;14.33;8.05;;;;;;;21.39;46.49;100932.42;1648850;86;21673;-78
2022/11/04 02:05:31;;;;;;;13.83;7.85;;;;;;;21.41;46.49;100937.09;1642953;86;21046;-79
2022/11/04 02:07:57;;;;;;;12.98;8.65;;;;;;;21.40;46.46;100926.33;1618124;87;21495;-78
2022/11/04 02:10:26;;;;;;;12.85;8.35;;;;;;;21.39;46.46;100928.27;1596284;86;36298;-78
2022/11/04 02:12:54;;;;;;;13.28;8.88;;;;;;;21.40;46.46;100919.41;1645217;86;21120;-78
2022/11/04 02:15:38;;;;;;;14.60;8.33;;;;;;;21.39;46.45;100920.53;1646208;86;21165;-78
2022/11/04 02:18:46;;;;;;;14.38;9.03;;;;;;;21.39;46.42;100918.59;1643436;86;21038;-78
2022/11/04 02:21:24;;;;;;;13.28;8.30;;;;;;;21.39;46.41;100917.77;1643655;86;21601;-78
2022/11/04 02:24:40;;;;;;;12.78;8.15;;;;;;;21.39;46.40;100919.15;1646576;86;21153;-79
2022/11/04 02:27:37;;;;;;;12.28;8.50;;;;;;;21.39;46.39;100917.20;1646920;86;21402;-78
2022/11/04 02:30:17;;;;;;;13.00;8.78;;;;;;;21.38;46.36;100916.16;1640374;86;21535;-78
2022/11/04 02:33:20;;;;;;;12.30;8.57;;;;;;;21.37;46.35;100920.05;1610845;87;21159;-78
2022/11/04 02:36:06;;;;;;;11.85;7.78;;;;;;;21.37;46.35;100918.67;1627291;87;21095;-78
2022/11/04 02:38:50;;;;;;;12.05;7.92;;;;;;;21.35;46.33;100918.98;1622811;87;21258;-78
2022/11/04 02:41:37;;;;;;;10.82;7.85;;;;;;;21.35;46.33;100912.06;1630044;87;21889;-78
2022/11/04 02:44:33;;;;;;;11.83;8.45;;;;;;;21.35;46.32;100907.91;1634767;85;21207;-79
2022/11/04 02:47:13;;;;;;;15.08;7.97;;;;;;;21.34;46.30;100904.09;1609900;88;21033;-78
2022/11/04 02:49:46;;;;;;;13.65;8.50;;;;;;;21.34;46.30;100903.50;1610735;87;21095;-78
2022/11/04 02:52:21;;;;;;;12.28;8.03;;;;;;;21.33;46.29;100904.66;1642026;86;21124;-78
2022/11/04 02:55:08;;;;;;;15.72;9.15;;;;;;;21.34;46.29;100909.63;1639875;86;21643;-78
2022/11/04 02:57:35;;;;;;;11.90;7.70;;;;;;;21.34;46.28;100906.87;1622613;86;21077;-78
2022/11/04 03:00:07;;;;;;;14.68;8.60;;;;;;;21.34;46.25;100905.48;1626060;86;21113;-78
2022/11/04 03:02:53;;;;;;;13.10;8.53;;;;;;;21.33;46.25;100904.66;1627075;87;21064;-78
2022/11/04 03:05:30;;;;;;;12.37;8.28;;;;;;;21.33;46.21;100906.05;1621555;86;21052;-78
2022/11/04 03:07:59;;;;;;;12.00;7.35;;;;;;;21.33;46.21;100902.46;1624856;87;21508;-78
2022/11/04 03:10:36;;;;;;;12.00;8.40;;;;;;;21.33;46.18;100903.84;1625864;87;21093;-79
2022/11/04 03:13:10;;;;;;;14.20;8.53;;;;;;;21.33;46.16;100901.89;1627808;86;21626;-78
2022/11/04 03:15:37;;;;;;;14.83;8.48;;;;;;;21.34;46.13;100898.56;1622783;86;21139;-78
2022/11/04 03:18:43;;;;;;;12.03;7.75;;;;;;;21.33;46.16;100892.20;1615224;87;21638;-78
2022/11/04 03:21:11;;;;;;;12.07;7.75;;;;;;;21.33;46.15;100887.23;1612847;87;21901;-78
2022/11/04 03:23:37;;;;;;;12.73;7.80;;;;;;;21.33;46.13;100890.00;1618521;87;21125;-78
2022/11/04 03:26:21;;;;;;;11.90;7.45;;;;;;;21.32;46.12;100887.80;1607185;86;21226;-78
2022/11/04 03:29:14;;;;;;;10.85;8.10;;;;;;;21.32;46.12;100888.36;1605829;87;21068;-78
2022/11/04 03:31:52;;;;;;;16.10;8.43;;;;;;;21.31;46.10;100884.78;1613800;86;21200;-78
2022/11/04 03:34:18;;;;;;;11.97;7.83;;;;;;;21.32;46.09;100884.21;1613548;87;21231;-78
2022/11/04 03:36:44;;;;;;;10.45;7.45;;;;;;;21.31;46.09;100882.02;1617746;87;21062;-78
2022/11/04 03:39:11;;;;;;;12.78;8.08;;;;;;;21.31;46.06;100880.63;1597343;88;21153;-78
2022/11/04 03:41:45;;;;;;;13.60;8.03;;;;;;;21.30;46.06;100875.44;1613930;86;21116;-78
2022/11/04 03:44:11;;;;;;;11.40;7.80;;;;;;;21.31;46.04;100875.09;1630697;85;21793;-78
2022/11/04 03:46:38;;;;;;;10.35;7.45;;;;;;;21.31;46.04;100869.56;1634270;85;21122;-78
2022/11/04 03:49:04;;;;;;;11.15;7.87;;;;;;;21.30;46.03;100870.69;1644455;86;21599;-78
2022/11/04 03:51:30;;;;;;;11.00;7.83;;;;;;;21.32;46.03;100870.38;1632683;86;21029;-78
2022/11/04 03:53:57;;;;;;;12.78;7.65;;;;;;;21.31;45.99;100865.41;1620437;86;21167;-78
2022/11/04 03:56:52;;;;;;;10.70;7.42;;;;;;;21.32;45.99;100862.08;1643786;85;21065;-78
2022/11/04 03:59:39;;;;;;;9.73;7.15;;;;;;;21.31;45.97;100857.11;1635800;86;21834;-78
2022/11/04 04:02:20;;;;;;;14.80;8.40;;;;;;;21.30;45.96;100851.91;1642601;85;21105;-78
2022/11/04 04:04:59;;;;;;;;;;;;;;;21.29;45.96;100849.70;1618931;86;21049;-78
2022/11/04 04:07:34;;;;;;;12.43;7.60;;;;;;;21.28;45.89;100851.41;1615478;86;20191;-77
2022/11/04 04:10:38;;;;;;;10.95;7.47;;;;;;;21.27;45.96;100848.38;1614956;86;21053;-78
2022/11/04 04:13:30;;;;;;;12.60;7.47;;;;;;;21.27;45.93;100852.53;1633663;85;21869;-78
2022/11/04 04:16:17;;;;;;;12.50;9.10;;;;;;;21.26;45.90;100854.48;1627094;86;21067;-78
2022/11/04 04:19:01;;;;;;;12.45;7.67;;;;;;;21.26;45.88;100860.61;1648075;86;21678;-78
2022/11/04 04:21:31;;;;;;;12.40;7.80;;;;;;;21.25;45.86;100857.02;1637217;86;21152;-78
2022/11/04 04:29:27;;;;;;;12.68;8.28;;;;;;;21.23;45.87;100868.14;1652219;86;21076;-78
2022/11/04 04:31:56;;;;;;;10.50;7.42;;;;;;;21.23;45.85;100862.05;1631964;86;21163;-78
2022/11/04 04:34:30;;;;;;;11.25;7.25;;;;;;;21.23;45.86;100868.97;1650511;85;21089;-78
2022/11/04 04:37:07;;;;;;;11.73;7.62;;;;;;;21.23;45.83;100864.00;1624711;86;21185;-79
2022/11/04 04:45:35;;;;;;;12.65;7.58;;;;;;;21.27;45.69;100866.36;1649722;85;21512;-78
2022/11/04 04:48:01;;;;;;;11.38;7.15;;;;;;;21.30;45.57;100864.36;1651524;86;21119;-78
2022/11/04 04:50:32;;;;;;;8.90;6.85;;;;;;;21.34;45.54;100865.35;1656663;86;21128;-78
2022/11/04 04:52:58;;;;;;;13.65;7.35;;;;;;;21.37;45.50;100859.98;1652212;85;21539;-78
2022/11/04 04:55:24;;;;;;;12.00;7.62;;;;;;;21.43;45.43;100855.69;1651042;85;21774;-78
2022/11/04 04:57:51;;;;;;;11.73;7.37;;;;;;;21.47;45.38;100857.50;1626543;86;21060;-78
2022/11/04 05:00:19;;;;;;;10.98;7.12;;;;;;;21.53;45.30;100854.80;1651319;85;21487;-78
2022/11/04 05:02:45;;;;;;;12.05;6.58;;;;;;;21.61;45.19;100854.00;1652703;86;21160;-78
2022/11/04 05:05:15;;;;;;;9.70;6.37;;;;;;;21.68;45.13;100855.74;1649808;86;21150;-78
2022/11/04 05:07:41;;;;;;;10.80;6.45;;;;;;;21.76;45.04;100861.04;1649737;86;21054;-78
2022/11/04 05:10:09;;;;;;;12.47;6.75;;;;;;;21.84;44.92;100863.82;1645904;86;21061;-78
2022/11/04 05:15:21;;;;;;;12.13;7.37;;;;;;;22.00;44.61;100857.81;1649646;86;21073;-78
2022/11/04 05:17:53;;;;;;;11.40;7.25;;;;;;;22.07;44.51;100858.13;1649340;86;21172;-77
2022/11/04 05:20:27;;;;;;;11.50;7.08;;;;;;;22.14;44.34;100857.09;1633849;85;21055;-77
2022/11/04 05:22:54;;;;;;;13.90;7.20;;;;;;;22.21;44.11;100860.17;1651233;86;21096;-78
2022/11/04 05:25:20;;;;;;;14.63;7.45;;;;;;;22.29;43.93;100862.94;1620652;86;21136;-78
2022/11/04 05:27:46;;;;;;;13.22;7.33;;;;;;;22.37;43.70;100861.30;1613473;86;21293;-77
2022/11/04 05:30:13;;;;;;;12.33;7.80;;;;;;;22.44;43.51;100867.74;1645086;85;21120;-76
2022/11/04 05:32:39;;;;;;;11.35;7.25;;;;;;;22.52;43.31;100870.50;1621375;86;21528;-77
2022/11/04 05:35:06;;;;;;;14.95;8.38;;;;;;;22.59;43.07;100876.35;1642704;85;21152;-77
2022/11/04 05:37:32;;;;;;;12.70;8.18;;;;;;;22.67;42.92;100878.86;1688141;84;21071;-77
2022/11/04 05:39:58;;;;;;;15.75;8.25;;;;;;;22.75;42.69;100884.41;1629885;84;21099;-75
2022/11/04 05:42:25;;;;;;;16.77;8.05;;;;;;;22.82;42.50;100883.92;1601621;86;21901;-77
2022/11/04 05:44:51;;;;;;;14.65;8.68;;;;;;;22.88;42.34;100878.99;1637833;86;21160;-77
2022/11/04 05:47:18;;;;;;;12.23;8.13;;;;;;;22.93;42.18;100879.64;1640895;86;21152;-76
2022/11/04 05:49:44;;;;;;;21.37;8.25;;;;;;;22.96;42.06;100880.92;1630521;85;21116;-75
2022/11/04 05:52:10;;;;;;;20.55;8.38;;;;;;;22.99;41.96;100879.71;1675683;83;21713;-76
2022/11/04 05:54:38;;;;;;;22.73;9.25;;;;;;;23.03;41.81;100882.62;1691926;83;22001;-78
2022/11/04 05:57:04;;;;;;;36.58;9.80;;;;;;;23.04;41.67;100883.66;1662081;82;21122;-78
2022/11/04 05:59:31;;;;;;;28.38;9.78;;;;;;;23.05;41.59;100878.93;1675138;82;21068;-77
2022/11/04 06:01:57;;;;;;;26.95;11.48;;;;;;;23.04;41.40;100880.11;1684966;83;21080;-78
2022/11/04 06:04:24;;;;;;;26.82;10.10;;;;;;;23.02;41.27;100876.83;1682853;83;22350;-76
2022/11/04 06:06:50;;;;;;;21.87;9.95;;;;;;;23.01;41.12;100879.36;1675311;83;22123;-79
2022/11/04 06:09:16;;;;;;;27.40;10.40;;;;;;;23.01;40.93;100875.20;1675084;83;21116;-75
2022/11/04 06:11:42;;;;;;;25.15;10.38;;;;;;;23.02;40.78;100880.99;1683584;83;21178;-76
2022/11/04 06:14:09;;;;;;;20.25;10.10;;;;;;;23.05;40.58;100881.14;1687120;82;21572;-77
2022/11/04 06:16:35;;;;;;;20.75;10.03;;;;;;;23.06;40.40;100888.89;1688592;83;21138;-76
2022/11/04 06:19:02;;;;;;;23.80;11.10;;;;;;;23.06;40.27;100884.16;1675276;83;21547;-76
2022/11/04 06:21:30;;;;;;;18.90;10.08;;;;;;;23.04;40.12;100882.28;1650061;84;21026;-75
2022/11/04 06:23:57;;;;;;;20.88;10.72;;;;;;;23.05;39.99;100878.93;1684678;83;21665;-75
2022/11/04 06:26:27;;;;;;;19.87;11.20;;;;;;;23.04;39.91;100879.50;1695466;83;21105;-76
2022/11/04 06:28:53;;;;;;;19.05;10.72;;;;;;;23.05;39.81;100877.55;1689468;83;21637;-75
2022/11/04 06:31:20;;;;;;;19.35;9.83;;;;;;;23.02;39.82;100872.09;1676578;83;21779;-82
2022/11/04 06:33:47;;;;;;;15.78;8.80;;;;;;;23.02;39.78;100882.38;1687171;83;21085;-82
2022/11/04 06:36:14;;;;;;;19.60;9.35;;;;;;;23.02;39.76;100879.61;1682438;82;21964;-87
2022/11/04 06:38:41;;;;;;;18.02;9.30;;;;;;;22.99;39.73;100877.50;1680119;83;21199;-85
2022/11/04 06:41:14;;;;;;;16.57;8.73;;;;;;;22.98;39.72;100879.46;1684525;83;21212;-83
2022/11/04 06:43:40;;;;;;;19.70;8.98;;;;;;;22.95;39.68;100885.69;1681496;83;21803;-81
2022/11/04 06:46:27;;;;;;;17.55;8.70;;;;;;;22.92;39.64;100882.16;1690901;83;21209;-86
2022/11/04 06:48:55;;;;;;;19.27;8.88;;;;;;;22.89;39.61;100882.02;1688333;83;21225;-75
2022/11/04 06:51:21;;;;;;;26.93;8.18;;;;;;;22.85;39.75;100879.66;1689614;83;21151;-74
2022/11/04 06:53:47;;;;;;;23.73;8.65;;;;;;;22.77;40.15;100882.70;1684936;83;21167;-75
2022/11/04 06:56:14;;;;;;;23.02;8.43;;;;;;;22.69;40.63;100876.05;1641472;85;21993;-75
2022/11/04 06:58:40;;;;;;;29.65;8.53;;;;;;;22.65;40.79;100881.16;1613277;86;21077;-75
2022/11/04 07:01:08;;;;;;;25.80;8.33;;;;;;;22.61;40.88;100874.08;1613240;85;21696;-80
2022/11/04 07:03:35;;;;;;;23.07;9.33;;;;;;;22.58;41.00;100866.40;1608148;86;21416;-76
2022/11/04 07:06:08;;;;;;;19.62;10.05;;;;;;;22.56;40.96;100864.54;1637737;86;21615;-75
2022/11/04 07:08:35;;;;;;;23.62;9.15;;;;;;;22.50;40.95;100865.84;1633843;85;21714;-75
2022/11/04 07:11:02;;;;;;;29.25;9.43;;;;;;;22.45;41.23;100857.69;1648693;85;21099;-81
2022/11/04 07:13:28;;;;;;;20.40;8.55;;;;;;;22.45;41.53;100858.29;1638221;85;21112;-78
2022/11/04 07:15:54;;;;;;;24.50;9.18;;;;;;;22.45;41.78;100856.30;1634486;86;21140;-80
2022/11/04 07:18:21;;;;;;;21.70;8.78;;;;;;;22.44;41.84;100849.72;1602204;86;21117;-78
2022/11/04 07:20:47;;;;;;;22.02;8.83;;;;;;;22.43;41.94;100843.36;1626380;86;21130;-79
2022/11/04 07:23:14;;;;;;;29.18;9.30;;;;;;;22.42;42.11;100844.50;1618236;86;21122;-79
2022/11/04 07:25:40;;;;;;;27.67;8.48;;;;;;;22.42;42.19;100849.22;1624057;86;21262;-79
2022/11/04 07:28:06;;;;;;;17.30;8.25;;;;;;;22.41;42.22;100847.59;1620906;86;21131;-77
2022/11/04 07:30:33;;;;;;;14.40;8.25;;;;;;;22.40;42.15;100845.98;1627086;86;21228;-77
2022/11/04 07:32:59;;;;;;;18.48;8.10;;;;;;;22.38;42.13;100842.14;1592284;86;21251;-77
2022/11/04 07:35:26;;;;;;;19.95;8.53;;;;;;;22.37;42.09;100839.12;1626324;85;21056;-79
2022/11/04 07:37:54;;;;;;;18.20;8.85;;;;;;;22.36;42.08;100830.59;1713089;78;21024;-79
2022/11/04 07:40:20;;;;;;;20.68;8.78;;;;;;;22.36;42.07;100825.61;1692285;81;21095;-78
2022/11/04 07:42:46;;;;;;;17.07;8.50;;;;;;;22.34;41.94;100817.61;1713092;80;21087;-79
2022/11/04 07:45:13;;;;;;;20.60;8.93;;;;;;;22.33;41.83;100820.13;1729487;80;21143;-77
2022/11/04 07:47:39;;;;;;;16.25;8.88;;;;;;;22.30;41.71;100815.25;1750052;79;21091;-79
2022/11/04 07:50:06;;;;;;;25.97;10.25;;;;;;;22.28;41.57;100818.34;1762664;80;21061;-82
2022/11/04 07:55:05;;;;;;;19.37;7.95;;;;;;;22.15;41.68;100813.80;1739320;79;21073;-83
2022/11/04 07:57:31;;;;;;;25.30;9.20;;;;;;;22.10;41.68;100821.48;1718851;80;21609;-77
2022/11/04 07:59:58;;;;;;;26.02;8.48;;;;;;;22.04;41.70;100819.44;1728211;80;21456;-80
2022/11/04 08:02:24;;;;;;;26.35;9.53;;;;;;;21.95;41.83;100812.27;1752689;80;21060;-80
2022/11/04 08:04:51;;;;;;;31.85;8.83;;;;;;;21.93;42.25;100818.16;1702472;82;21581;-78
2022/11/04 08:07:17;;;;;;;17.90;8.95;;;;;;;21.94;42.39;100809.27;1726917;80;21049;-78
2022/11/04 08:09:44;;;;;;;20.25;8.40;;;;;;;21.96;42.44;100813.34;1747966;80;21827;-77
2022/11/04 08:12:10;;;;;;;19.35;8.43;;;;;;;21.94;42.37;100811.45;1744646;80;21086;-77
2022/11/04 08:14:36;;;;;;;16.17;9.10;;;;;;;21.97;42.38;100805.84;1732853;80;21165;-77
2022/11/04 08:17:03;;;;;;;19.00;8.43;;;;;;;21.98;42.31;100805.50;1735362;80;22169;-77
2022/11/04 08:19:30;;;;;;;21.85;9.10;;;;;;;21.99;42.34;100802.98;1704626;81;21301;-76
2022/11/04 08:21:56;;;;;;;24.77;8.90;;;;;;;22.00;42.34;100792.71;1730869;80;21091;-76
2022/11/04 08:24:24;;;;;;;24.98;8.60;;;;;;;22.00;42.38;100792.71;1742296;80;21024;-77
2022/11/04 08:26:50;;;;;;;26.87;9.50;;;;;;;21.99;42.36;100784.16;1732100;80;21203;-77
2022/11/04 08:29:15;;;;;;;26.48;8.75;;;;;;;22.00;42.25;100789.37;1705321;81;22214;-76
2022/11/04 08:31:42;;;;;;;20.62;7.90;;;;;;;22.00;42.20;100787.17;1741111;80;21003;-76
2022/11/04 08:34:08;;;;;;;22.75;8.38;;;;;;;22.00;42.13;100785.22;1734533;80;21156;-75
2022/11/04 08:36:36;;;;;;;25.82;8.80;;;;;;;22.00;42.06;100778.86;1700742;81;21033;-76
2022/11/04 08:39:04;;;;;;;27.17;8.75;;;;;;;21.98;42.00;100769.48;1741538;80;21734;-76
2022/11/04 08:41:30;;;;;;;12.47;7.37;;;;;;;21.99;41.91;100771.69;1733104;80;21050;-76
2022/11/04 08:43:59;;;;;;;26.40;7.72;;;;;;;21.98;42.02;100779.18;1730952;80;21803;-76
2022/11/04 08:46:27;;;;;;;18.95;7.42;;;;;;;21.97;42.45;100780.34;1738094;80;22233;-78
2022/11/04 08:48:53;;;;;;;29.20;7.20;;;;;;;21.98;42.87;100771.47;1712915;82;21119;-77
2022/11/04 08:51:23;;;;;;;24.18;7.65;;;;;;;21.99;43.31;100779.43;1740259;80;21133;-80
2022/11/04 08:53:49;;;;;;;20.70;7.55;;;;;;;21.99;43.55;100778.61;1734491;80;21251;-76
2022/11/04 08:56:20;;;;;;;26.80;6.83;;;;;;;21.97;43.60;100764.29;1738256;80;21928;-77
2022/11/04 08:58:46;;;;;;;21.60;8.43;;;;;;;21.96;43.92;100764.86;1741954;80;21058;-78
2022/11/04 09:01:14;;;;;;;18.80;6.55;;;;;;;21.99;43.91;100760.61;1742441;80;21635;-78
2022/11/04 09:03:40;;;;;;;14.58;6.97;;;;;;;21.95;43.58;100752.70;1756255;80;21724;-76
2022/11/04 09:06:09;;;;;;;19.12;6.97;;;;;;;21.91;43.78;100747.55;1719871;80;21620;-74
2022/11/04 09:11:02;;;;;;;12.43;6.35;;;;;;;21.92;43.98;100740.34;1731496;81;21098;-76
2022/11/04 09:13:28;;;;;;;20.95;7.47;;;;;;;21.92;43.84;100738.95;1692075;81;22267;-76
2022/11/04 09:15:55;;;;;;;19.02;7.12;;;;;;;21.93;43.60;100740.59;1741534;81;21920;-76
2022/11/04 09:18:23;;;;;;;17.92;7.55;;;;;;;21.92;43.41;100745.03;1731435;81;21332;-75
2022/11/04 09:20:49;;;;;;;15.98;7.20;;;;;;;21.91;43.21;100732.31;1736126;81;21510;-80
2022/11/04 09:23:16;;;;;;;14.45;6.65;;;;;;;21.92;42.99;100738.11;1688595;81;22826;-78
2022/11/04 09:25:43;;;;;;;17.37;7.12;;;;;;;21.91;42.76;100739.24;1736168;81;21046;-80
2022/11/04 09:28:09;;;;;;;17.40;6.20;;;;;;;21.91;42.61;100736.47;1737479;81;21219;-80
2022/11/04 09:30:36;;;;;;;14.90;6.80;;;;;;;21.88;42.48;100731.03;1720181;81;21078;-81
2022/11/04 09:33:03;;;;;;;13.68;7.58;;;;;;;21.86;42.39;100728.58;1733327;80;21045;-78
2022/11/04 09:35:29;;;;;;;13.83;6.28;;;;;;;21.83;42.24;100732.58;1720146;81;21745;-78
2022/11/04 09:38:00;;;;;;;14.23;6.83;;;;;;;21.78;42.34;100727.20;1721629;81;21067;-78
2022/11/04 09:40:26;;;;;;;18.85;7.20;;;;;;;21.74;42.29;100728.43;1730370;80;21077;-78
2022/11/04 09:43:38;;;;;;;43.25;8.18;;;;;;;21.73;42.28;100714.34;1729249;81;21043;-76
2022/11/04 09:46:04;;;;;;;31.50;7.25;;;;;;;21.73;42.29;100715.72;1730897;80;21666;-77
2022/11/04 09:48:44;;;;;;;23.85;7.20;;;;;;;21.73;42.46;100710.18;1710003;81;21482;-78
2022/11/04 09:51:11;;;;;;;28.85;7.70;;;;;;;21.76;43.26;100709.55;1717784;80;21147;-79
2022/11/04 09:53:46;;;;;;;22.82;7.92;;;;;;;21.81;43.48;100698.88;1723077;81;21071;-78
2022/11/04 09:56:19;;;;;;;31.82;8.13;;;;;;;21.83;43.55;100693.23;1729341;81;21142;-77
2022/11/04 09:58:46;;;;;;;27.05;8.33;;;;;;;21.82;43.30;100690.22;1738839;80;21091;-78
2022/11/04 10:01:32;;;;;;;24.10;7.58;;;;;;;21.83;43.33;100688.27;1734961;81;21948;-79
2022/11/04 10:04:26;;;;;;;30.35;8.70;;;;;;;21.84;43.44;100682.98;1737471;80;21205;-78
2022/11/04 10:07:06;;;;;;;23.67;7.08;;;;;;;21.86;43.43;100680.67;1725673;80;21061;-78
2022/11/04 10:09:56;;;;;;;21.85;7.90;;;;;;;21.85;43.37;100676.30;1734146;80;21081;-78
2022/11/04 10:12:22;;;;;;;25.30;7.45;;;;;;;21.83;43.41;100675.23;1726801;80;21152;-79
2022/11/04 10:18:39;;;;;;;21.82;6.92;;;;;;;21.84;43.45;100664.97;1727064;80;21315;-78
2022/11/04 10:24:14;;;;;;;14.15;6.72;;;;;;;21.84;43.46;100650.56;1722191;80;21069;-78
2022/11/04 10:26:55;;;;;;;24.32;9.25;;;;;;;21.83;43.42;100646.16;1722779;81;21652;-77
2022/11/04 10:29:43;;;;;;;20.48;8.33;;;;;;;21.83;43.35;100635.64;1709440;80;21583;-78
2022/11/04 10:35:35;;;;;;;21.33;8.83;;;;;;;21.81;43.41;100631.81;1594035;87;21127;-79
2022/11/04 10:38:18;;;;;;;14.68;7.92;;;;;;;21.83;43.41;100631.48;1632872;85;21206;-78
2022/11/04 10:40:48;;;;;;;15.32;7.72;;;;;;;21.81;43.40;100624.88;1665700;82;21661;-78
2022/11/04 10:43:19;;;;;;;20.02;7.97;;;;;;;21.82;43.39;100618.78;1664640;83;21225;-78
2022/11/04 10:46:03;;;;;;;13.32;7.42;;;;;;;21.83;43.36;100619.03;1658096;83;21225;-78
2022/11/04 10:51:01;;;;;;;17.65;7.53;;;;;;;21.80;43.20;100605.28;1649152;84;21089;-78
2022/11/04 10:53:30;;;;;;;20.70;7.75;;;;;;;21.79;43.20;100597.30;1641090;84;21173;-78
2022/11/04 10:56:39;;;;;;;16.65;7.35;;;;;;;21.79;43.21;100596.72;1649640;84;21223;-79
2022/11/04 10:59:05;;;;;;;19.67;7.20;;;;;;;21.80;43.27;100603.89;1655567;83;21127;-78
2022/11/04 11:01:33;;;;;;;27.40;7.22;;;;;;;21.81;43.30;100598.58;1654164;83;21156;-78
2022/11/04 11:04:00;;;;;;;20.80;7.35;;;;;;;21.83;43.46;100591.33;1653622;84;21122;-78
2022/11/04 11:06:32;;;;;;;28.00;7.05;;;;;;;21.84;43.45;100592.40;1647686;84;21094;-78
2022/11/04 11:09:13;;;;;;;24.57;7.03;;;;;;;21.87;43.56;100579.83;1641529;84;21792;-78
2022/11/04 11:11:44;;;;;;;;;;;;;;;21.87;43.51;100574.30;1639950;84;21732;-77
2022/11/04 11:14:31;;;;;;;17.98;7.35;;;;;;;21.84;43.46;100575.78;1654398;84;20460;-78
2022/11/04 11:17:35;;;;;;;20.62;7.47;;;;;;;21.84;43.51;100573.58;1656729;84;21980;-77
2022/11/04 11:20:20;;;;;;;21.77;7.25;;;;;;;21.84;43.54;100568.86;1641862;85;21193;-76
2022/11/04 11:22:55;;;;;;;16.73;7.25;;;;;;;21.84;43.49;100564.70;1630209;85;21155;-76
2022/11/04 11:25:35;;;;;;;13.43;6.67;;;;;;;21.82;43.41;100555.90;1719241;78;21127;-76
2022/11/04 11:28:09;;;;;;;18.95;7.28;;;;;;;21.83;43.38;100549.80;1734608;80;21083;-77
2022/11/04 11:30:47;;;;;;;18.85;7.72;;;;;;;21.83;43.29;100550.61;1716369;80;21202;-77
2022/11/04 11:33:21;;;;;;;15.80;6.53;;;;;;;21.83;43.21;100547.02;1719135;80;21680;-77
2022/11/04 11:36:11;;;;;;;12.78;6.97;;;;;;;21.83;43.19;100540.91;1738033;79;21439;-77
2022/11/04 11:38:51;;;;;;;12.07;6.10;;;;;;;21.83;43.13;100540.91;1701913;81;21725;-78
2022/11/04 11:41:22;;;;;;;15.87;7.23;;;;;;;21.81;42.99;100536.86;1734528;79;21123;-77
2022/11/04 11:43:50;;;;;;;13.58;7.78;;;;;;;21.75;42.81;100523.77;1724662;81;21651;-76
2022/11/04 11:46:31;;;;;;;14.23;7.25;;;;;;;21.79;42.84;100529.45;1693693;81;21223;-76
2022/11/04 11:49:00;;;;;;;14.03;6.95;;;;;;;21.79;42.84;100528.87;1731588;79;21115;-76
2022/11/04 11:51:31;;;;;;;15.18;6.35;;;;;;;21.78;42.76;100513.40;1676654;81;21160;-76
2022/11/04 11:54:26;;;;;;;20.20;6.72;;;;;;;21.79;42.70;100512.83;1675460;81;21111;-78
2022/11/04 11:56:54;;;;;;;29.35;7.03;;;;;;;21.77;42.74;100509.00;1693736;81;21130;-79
2022/11/04 11:59:47;;;;;;;25.68;6.10;;;;;;;21.78;42.77;100511.20;1699798;80;21159;-87
2022/11/04 12:02:42;;;;;;;27.22;7.30;;;;;;;21.77;42.82;100511.77;1699337;81;21864;-83
2022/11/04 12:05:10;;;;;;;27.50;7.30;;;;;;;21.76;42.98;100503.81;1699804;82;21176;-82
2022/11/04 12:08:09;;;;;;;34.88;7.85;;;;;;;21.78;43.22;100505.09;1699979;80;21543;-85
2022/11/04 12:10:54;;;;;;;27.27;7.17;;;;;;;21.79;43.33;100502.57;1691778;81;21646;-82
2022/11/04 12:13:26;;;;;;;15.60;6.25;;;;;;;21.80;43.44;100498.66;1712008;81;21131;-85
2022/11/04 12:16:08;;;;;;;27.48;9.25;;;;;;;21.80;43.46;100500.05;1726654;80;21855;-86
2022/11/04 12:19:25;;;;;;;19.35;6.62;;;;;;;21.80;43.24;100486.77;1709109;81;21185;-85
2022/11/04 12:22:26;;;;;;;15.28;7.37;;;;;;;21.78;43.04;100485.70;1713446;80;21655;-85
2022/11/04 12:25:10;;;;;;;13.08;6.55;;;;;;;21.73;42.72;100477.58;1679223;81;21135;-85
2022/11/04 12:27:51;;;;;;;20.82;6.95;;;;;;;21.70;42.54;100485.18;1676792;82;21055;-85